Time;durP1;ratioP1;P1;durP2;ratioP2;P2;SDS_P1;SDS_P2;PMS_P1;PMS_P2;Temp;Humidity;BMP_temperature;BMP_pressure;BME280_temperature;BME280_humidity;BME280_pressure;Samples;Min_cycle;Max_cycle;Signal;HPM_P1;HPM_P2
2022/05/31 00:05:01;;;;;;;14.98;6.30;;;;;;;7.54;81.11;100441.51;3539966;81;98459;-85
2022/05/31 00:10:04;;;;;;;11.93;6.15;;;;;;;7.50;81.50;100431.04;3535258;83;98601;-85
2022/05/31 00:15:07;;;;;;;11.07;5.67;;;;;;;7.47;81.94;100433.14;3535352;83;99053;-83
2022/05/31 00:20:12;;;;;;;13.72;6.72;;;;;;;7.44;83.07;100438.75;3530710;83;98242;-85
2022/05/31 00:25:14;;;;;;;10.43;6.05;;;;;;;7.35;82.70;100438.13;3542101;82;99145;-85
2022/05/31 00:30:16;;;;;;;11.10;5.45;;;;;;;7.32;83.01;100441.56;3536056;83;31688;-85
2022/05/31 00:35:22;;;;;;;12.35;6.33;;;;;;;7.27;82.88;100435.58;3549212;83;98599;-86
2022/05/31 00:40:27;;;;;;;11.05;4.78;;;;;;;7.26;84.05;100436.73;3539209;83;97641;-85
2022/05/31 00:46:02;;;;;;;11.33;4.90;;;;;;;7.22;83.29;100449.53;3533218;81;98139;-86
2022/05/31 00:51:08;;;;;;;10.23;5.40;;;;;;;7.20;83.48;100450.47;3518227;83;98607;-85
2022/05/31 00:56:25;;;;;;;9.90;5.30;;;;;;;7.14;84.24;100449.92;3543302;82;98701;-86
2022/05/31 01:01:28;;;;;;;11.48;5.40;;;;;;;7.11;84.38;100458.86;3524173;83;98495;-86
2022/05/31 01:06:29;;;;;;;10.43;5.62;;;;;;;7.08;84.10;100462.84;3538582;82;32720;-86
2022/05/31 01:11:35;;;;;;;9.53;5.17;;;;;;;7.03;85.13;100469.98;3508488;83;98884;-85
2022/05/31 01:16:54;;;;;;;10.48;5.67;;;;;;;7.00;84.36;100462.46;3528036;83;98543;-85
2022/05/31 01:21:54;;;;;;;9.40;5.15;;;;;;;6.97;85.77;100465.33;3548283;82;98757;-86
2022/05/31 01:27:09;;;;;;;11.87;6.30;;;;;;;6.94;85.62;100470.15;3555015;81;98498;-85
2022/05/31 01:32:11;;;;;;;11.18;5.92;;;;;;;6.90;85.53;100468.45;3525119;83;98671;-86
2022/05/31 01:37:12;;;;;;;11.18;6.28;;;;;;;6.88;85.33;100469.38;3555506;83;98928;-85
2022/05/31 01:42:30;;;;;;;12.60;6.53;;;;;;;6.84;86.14;100467.92;3542895;82;98789;-86
2022/05/31 01:47:32;;;;;;;16.48;10.20;;;;;;;6.80;85.94;100472.50;3539799;83;98943;-86
2022/05/31 01:52:35;;;;;;;18.20;10.53;;;;;;;6.78;86.32;100471.26;3538497;83;99089;-85
2022/05/31 01:57:38;;;;;;;15.80;8.85;;;;;;;6.75;86.95;100480.95;3529479;83;98340;-86
2022/05/31 02:02:41;;;;;;;13.07;7.07;;;;;;;6.73;86.22;100482.45;3534759;83;98972;-86
2022/05/31 02:07:54;;;;;;;11.43;6.85;;;;;;;6.71;86.28;100479.28;3550805;82;98698;-86
2022/05/31 02:12:55;;;;;;;11.28;6.33;;;;;;;6.68;85.76;100490.91;3535525;83;97562;-85
2022/05/31 02:17:56;;;;;;;12.40;6.77;;;;;;;6.63;86.37;100485.13;3508555;83;98530;-86
2022/05/31 02:22:57;;;;;;;11.57;6.50;;;;;;;6.62;86.41;100495.04;3599260;80;98632;-86
2022/05/31 02:27:58;;;;;;;9.33;5.23;;;;;;;6.58;86.99;100497.68;3615646;80;97856;-86
2022/05/31 02:32:59;;;;;;;10.15;5.62;;;;;;;6.54;86.52;100498.73;3614028;80;98492;-86
2022/05/31 02:38:00;;;;;;;10.80;5.17;;;;;;;6.49;86.08;100518.12;3550603;82;98555;-86
2022/05/31 02:43:02;;;;;;;10.63;6.43;;;;;;;6.46;86.44;100519.61;3603891;80;97624;-86
2022/05/31 02:48:04;;;;;;;12.93;5.60;;;;;;;6.42;86.11;100515.16;3520399;83;97419;-85
2022/05/31 02:53:09;;;;;;;10.80;5.20;;;;;;;6.38;86.93;100512.92;3545585;82;98636;-85
2022/05/31 02:58:08;;;;;;;10.03;5.20;;;;;;;6.32;87.04;100521.14;3618334;80;97784;-85
2022/05/31 03:03:09;;;;;;;10.10;5.50;;;;;;;6.28;87.51;100518.28;3651555;80;98557;-86
2022/05/31 03:08:11;;;;;;;9.95;5.42;;;;;;;6.24;86.65;100515.22;3653034;80;97788;-86
2022/05/31 03:13:16;;;;;;;10.30;4.87;;;;;;;6.24;86.45;100519.32;3646192;80;98872;-85
2022/05/31 03:18:22;;;;;;;12.37;5.83;;;;;;;6.21;87.03;100522.17;3666128;80;31599;-86
2022/05/31 03:23:30;;;;;;;11.65;5.55;;;;;;;6.20;87.15;100521.95;3641954;80;98428;-86
2022/05/31 03:28:34;;;;;;;9.95;5.22;;;;;;;6.20;87.28;100530.70;3659148;80;98736;-86
2022/05/31 03:33:35;;;;;;;10.70;5.37;;;;;;;6.19;87.32;100526.39;3672227;80;97778;-86
2022/05/31 03:38:36;;;;;;;9.93;5.27;;;;;;;6.17;86.38;100526.73;3664891;80;99231;-86
2022/05/31 03:43:38;;;;;;;11.70;5.33;;;;;;;6.20;86.82;100530.70;3654492;80;98478;-86
2022/05/31 03:48:40;;;;;;;11.78;6.00;;;;;;;6.22;87.40;100534.69;3670287;80;29800;-86
2022/05/31 03:53:41;;;;;;;10.70;5.37;;;;;;;6.25;88.76;100536.75;3650624;80;98127;-86
2022/05/31 03:58:42;;;;;;;12.07;5.70;;;;;;;6.28;88.70;100536.04;3659820;79;98125;-86
2022/05/31 04:03:43;;;;;;;14.10;6.90;;;;;;;6.31;89.39;100538.09;3634844;80;98168;-87
2022/05/31 04:08:44;;;;;;;15.23;9.80;;;;;;;6.37;90.15;100542.73;3667712;80;97906;-86
2022/05/31 04:13:46;;;;;;;13.27;8.23;;;;;;;6.45;90.87;100554.12;3661209;80;98287;-86
2022/05/31 04:18:48;;;;;;;16.77;8.70;;;;;;;6.62;93.41;100551.09;3627189;80;26418;-86
2022/05/31 04:23:59;;;;;;;13.30;8.00;;;;;;;6.78;94.17;100549.21;3662963;79;98434;-86
2022/05/31 04:29:00;;;;;;;17.75;8.80;;;;;;;6.88;93.66;100549.49;3680588;80;98424;-86
2022/05/31 04:34:04;;;;;;;15.60;8.63;;;;;;;7.03;94.44;100552.84;3658286;80;98670;-86
2022/05/31 04:39:06;;;;;;;13.60;8.53;;;;;;;7.17;94.71;100561.45;3593188;81;99094;-86
2022/05/31 04:44:07;;;;;;;17.32;9.00;;;;;;;7.36;95.69;100556.07;3582659;82;99339;-86
2022/05/31 04:49:08;;;;;;;17.13;8.67;;;;;;;7.54;95.54;100556.53;3563641;82;25844;-86
2022/05/31 04:54:10;;;;;;;20.17;11.57;;;;;;;7.73;96.04;100563.45;3532749;82;98379;-86
2022/05/31 04:59:11;;;;;;;17.83;9.83;;;;;;;7.99;96.62;100560.38;3605297;82;98728;-86
2022/05/31 05:04:13;;;;;;;24.57;12.40;;;;;;;8.22;96.17;100560.52;3558897;82;98608;-86
2022/05/31 05:09:15;;;;;;;14.63;9.60;;;;;;;8.47;96.71;100561.88;3567889;82;97967;-86
2022/05/31 05:14:17;;;;;;;13.80;8.03;;;;;;;8.83;97.25;100567.73;3542777;82;97741;-86
2022/05/31 05:19:18;;;;;;;13.67;8.13;;;;;;;9.30;96.97;100556.47;3578295;80;97759;-85
2022/05/31 05:24:21;;;;;;;9.87;6.23;;;;;;;9.89;96.59;100559.45;3683239;79;98549;-86
2022/05/31 05:34:41;;;;;;;8.90;4.83;;;;;;;11.32;94.13;100564.11;3581670;79;98739;-86
2022/05/31 05:39:43;;;;;;;8.30;4.63;;;;;;;12.25;94.00;100560.37;3569942;82;98934;-86
2022/05/31 05:44:45;;;;;;;8.25;4.75;;;;;;;13.19;90.99;100562.82;3597652;80;98001;-85
2022/05/31 05:49:46;;;;;;;8.97;4.37;;;;;;;14.10;89.10;100560.91;3613547;81;98070;-86
2022/05/31 05:54:47;;;;;;;17.90;4.23;;;;;;;14.99;86.40;100556.72;3627507;80;98248;-85
2022/05/31 05:59:48;;;;;;;6.73;3.13;;;;;;;15.93;83.59;100570.59;3595140;80;98533;-86
2022/05/31 06:04:55;;;;;;;5.47;3.30;;;;;;;16.52;79.32;100568.64;3587673;80;98638;-86
2022/05/31 06:10:01;;;;;;;6.33;2.87;;;;;;;16.94;77.72;100560.44;3585398;79;97950;-86
2022/05/31 06:15:13;;;;;;;6.78;3.30;;;;;;;17.66;75.64;100573.13;3599058;80;98851;-81
2022/05/31 06:20:15;;;;;;;5.05;2.80;;;;;;;18.41;73.88;100573.47;3630725;80;98780;-81
2022/05/31 06:25:23;;;;;;;8.33;3.22;;;;;;;18.90;70.36;100578.08;3661705;80;98082;-78
2022/05/31 06:30:24;;;;;;;6.15;2.70;;;;;;;19.22;67.93;100571.26;3674737;80;25844;-80
2022/05/31 06:35:26;;;;;;;6.50;2.52;;;;;;;19.35;65.99;100574.97;3670024;80;98964;-81
2022/05/31 06:40:27;;;;;;;4.95;2.10;;;;;;;19.76;65.13;100575.20;3664260;80;98832;-80
2022/05/31 06:45:28;;;;;;;7.08;1.90;;;;;;;20.15;63.19;100584.23;3620571;79;99211;-80
2022/05/31 06:50:29;;;;;;;3.95;1.75;;;;;;;20.55;62.16;100579.95;3665238;79;99176;-81
2022/05/31 07:00:49;;;;;;;7.87;2.20;;;;;;;21.05;56.32;100589.19;3662468;79;98876;-80
2022/05/31 07:05:56;;;;;;;4.85;1.52;;;;;;;20.81;56.87;100584.43;3673923;79;97821;-79
2022/05/31 07:10:59;;;;;;;5.70;2.10;;;;;;;20.99;55.19;100586.77;3677720;79;99038;-79
2022/05/31 07:16:01;;;;;;;4.03;1.87;;;;;;;20.82;54.29;100588.03;3684843;79;99594;-79
2022/05/31 07:21:02;;;;;;;3.98;1.47;;;;;;;20.85;53.08;100592.72;3674598;78;99117;-80
2022/05/31 07:26:04;;;;;;;3.60;1.50;;;;;;;20.57;50.58;100593.51;3678408;79;99144;-80
2022/05/31 07:31:05;;;;;;;5.45;1.52;;;;;;;20.10;51.64;100598.72;3679373;79;100687;-78
2022/05/31 07:36:07;;;;;;;4.40;1.50;;;;;;;19.89;50.19;100601.23;3666753;79;99321;-78
2022/05/31 07:41:09;;;;;;;2.33;1.37;;;;;;;19.83;50.79;100605.14;3652839;78;98869;-80
2022/05/31 07:46:13;;;;;;;5.40;2.05;;;;;;;20.05;50.78;100602.64;3666796;79;98922;-79
2022/05/31 07:51:14;;;;;;;5.45;1.75;;;;;;;20.25;49.36;100610.33;3677151;79;98906;-80
2022/05/31 07:56:15;;;;;;;4.78;1.90;;;;;;;20.18;49.97;100603.52;3691863;79;97941;-79
2022/05/31 08:01:22;;;;;;;6.55;1.80;;;;;;;20.54;49.28;100606.98;3667199;79;98843;-79
2022/05/31 08:06:32;;;;;;;8.45;1.90;;;;;;;20.41;47.40;100601.92;3540302;83;25943;-79
2022/05/31 08:11:34;;;;;;;6.58;2.20;;;;;;;20.42;47.62;100607.68;3658043;80;98800;-78
2022/05/31 08:16:36;;;;;;;7.03;2.08;;;;;;;20.29;46.15;100609.03;3648724;79;98017;-79
2022/05/31 08:21:37;;;;;;;5.37;1.90;;;;;;;20.54;47.07;100604.19;3646846;79;99182;-80
2022/05/31 08:26:38;;;;;;;4.92;1.60;;;;;;;21.07;47.51;100600.71;3689633;79;98759;-81
2022/05/31 08:31:40;;;;;;;3.10;1.57;;;;;;;21.67;46.03;100592.67;3673745;79;98858;-81
2022/05/31 08:36:41;;;;;;;6.67;1.87;;;;;;;21.67;46.03;100592.67;3690763;79;31853;-80
2022/05/31 08:41:50;;;;;;;4.30;1.80;;;;;;;21.59;45.47;100592.74;3675143;79;99058;-79
2022/05/31 08:47:02;;;;;;;6.58;2.37;;;;;;;21.75;44.86;100595.47;3547743;81;99277;-79
2022/05/31 08:52:06;;;;;;;5.95;1.80;;;;;;;22.07;44.43;100593.81;3668627;78;99164;-81
2022/05/31 08:57:13;;;;;;;4.08;1.45;;;;;;;22.38;45.17;100586.33;3583049;80;98868;-79
2022/05/31 09:02:31;;;;;;;5.72;1.55;;;;;;;23.04;43.96;100583.18;3671000;78;98599;-79
2022/05/31 09:07:49;;;;;;;6.22;2.20;;;;;;;23.22;42.65;100583.32;3688522;79;97993;-79
2022/05/31 09:13:07;;;;;;;4.00;1.60;;;;;;;23.06;40.46;100580.69;3674597;79;98888;-80
2022/05/31 09:18:19;;;;;;;4.80;1.50;;;;;;;22.54;41.38;100586.19;3543167;82;98515;-79
2022/05/31 09:23:33;;;;;;;3.80;1.40;;;;;;;22.32;41.89;100588.94;3557729;81;99073;-79
2022/05/31 09:28:48;;;;;;;5.40;1.60;;;;;;;22.55;41.04;100584.98;3547471;81;98028;-79
2022/05/31 09:34:11;;;;;;;5.08;1.90;;;;;;;22.99;39.59;100575.34;3612144;80;98892;-76
2022/05/31 09:39:26;;;;;;;5.28;1.82;;;;;;;23.05;38.09;100577.72;3560637;81;98113;-78
2022/05/31 09:44:31;;;;;;;;;;;;;;;23.20;39.50;100578.77;3524589;83;98464;-80
2022/05/31 09:49:37;;;;;;;4.50;1.80;;;;;;;23.72;41.12;100566.88;3532958;82;84290;-79
2022/05/31 10:01:04;;;;;;;5.30;2.05;;;;;;;25.06;38.78;100573.16;3514463;82;26494;-79
2022/05/31 10:06:22;;;;;;;4.10;1.87;;;;;;;25.44;36.50;100561.48;3533192;83;98778;-79
2022/05/31 10:11:34;;;;;;;6.60;2.85;;;;;;;25.99;35.12;100557.18;3557042;81;99075;-80
2022/05/31 10:16:37;;;;;;;4.87;1.70;;;;;;;25.91;35.30;100553.17;3536087;82;98507;-79
2022/05/31 10:21:42;;;;;;;5.37;1.80;;;;;;;26.15;34.48;100556.00;3484725;81;98931;-80
2022/05/31 10:26:46;;;;;;;;;;;;;;;26.15;34.72;100544.08;3591620;81;98890;-80
2022/05/31 10:31:48;;;;;;;5.55;1.85;;;;;;;26.15;33.98;100541.25;3601134;80;85083;-79
2022/05/31 10:36:57;;;;;;;5.05;1.75;;;;;;;27.06;35.44;100540.66;3628858;80;26206;-79
2022/05/31 10:42:00;;;;;;;4.75;2.30;;;;;;;27.78;33.21;100536.22;3607068;80;99077;-79
2022/05/31 10:47:09;;;;;;;3.52;1.30;;;;;;;27.51;32.04;100535.16;3598982;79;99332;-80
2022/05/31 10:52:47;;;;;;;5.10;1.50;;;;;;;27.66;34.34;100530.23;3596674;78;98882;-79
2022/05/31 10:58:06;;;;;;;5.97;2.12;;;;;;;28.24;33.56;100530.84;3614731;80;99121;-79
2022/05/31 11:03:55;;;;;;;5.33;1.45;;;;;;;28.42;32.82;100539.70;3595188;80;98828;-79
2022/05/31 11:14:53;;;;;;;3.55;1.32;;;;;;;27.94;32.29;100522.95;3468028;81;98793;-79
2022/05/31 11:20:27;;;;;;;2.33;1.35;;;;;;;27.57;32.46;100519.05;3577393;80;98874;-79
2022/05/31 11:25:56;;;;;;;5.00;1.60;;;;;;;27.04;32.45;100519.19;3660086;79;98596;-78
2022/05/31 11:31:16;;;;;;;4.47;1.92;;;;;;;26.74;32.29;100519.63;3653247;80;98646;-79
2022/05/31 11:36:38;;;;;;;4.22;1.65;;;;;;;26.46;33.43;100516.25;3651538;80;98587;-77
2022/05/31 11:42:05;;;;;;;5.85;1.80;;;;;;;26.42;32.14;100517.71;3647325;80;98805;-77
2022/05/31 11:47:42;;;;;;;4.28;2.37;;;;;;;25.59;31.82;100513.05;3661120;79;98654;-77
2022/05/31 11:53:00;;;;;;;3.77;1.90;;;;;;;24.94;32.90;100518.56;3497078;83;99012;-77
2022/05/31 11:58:27;;;;;;;8.08;2.30;;;;;;;25.51;32.78;100512.46;3626888;80;98873;-77
2022/05/31 12:03:39;;;;;;;4.40;1.72;;;;;;;25.14;32.53;100505.37;3497713;82;98884;-76
2022/05/31 12:08:57;;;;;;;4.97;1.90;;;;;;;25.16;33.43;100507.86;3589596;79;98819;-77
2022/05/31 12:13:59;;;;;;;5.15;1.60;;;;;;;25.13;34.05;100501.75;3636761;79;98836;-77
2022/05/31 12:19:08;;;;;;;3.35;1.50;;;;;;;25.22;33.53;100486.89;3586822;81;98706;-78
2022/05/31 12:24:23;;;;;;;4.12;1.80;;;;;;;24.75;34.67;100484.64;3648696;79;98342;-76
2022/05/31 12:29:46;;;;;;;3.80;1.55;;;;;;;24.78;33.41;100483.72;3656153;79;98871;-77
2022/05/31 12:34:48;;;;;;;4.83;1.67;;;;;;;24.38;33.88;100469.66;3645810;79;98874;-77
2022/05/31 12:39:50;;;;;;;8.25;2.47;;;;;;;24.47;33.16;100482.33;3628809;79;98782;-77
2022/05/31 12:45:13;;;;;;;4.87;1.70;;;;;;;24.13;33.75;100465.13;3653231;80;98775;-77
2022/05/31 12:50:20;;;;;;;13.32;2.67;;;;;;;24.13;34.16;100468.59;3656108;80;98904;-77
2022/05/31 12:55:26;;;;;;;4.65;2.30;;;;;;;24.16;34.56;100464.21;3646001;79;98808;-77
2022/05/31 13:00:36;;;;;;;5.17;2.10;;;;;;;24.34;33.95;100452.16;3656531;79;97839;-78
2022/05/31 13:05:54;;;;;;;3.52;1.65;;;;;;;24.32;34.37;100456.86;3654937;79;98691;-77
2022/05/31 13:21:40;;;;;;;7.25;2.40;;;;;;;24.25;34.50;100453.58;3654450;80;99085;-77
2022/05/31 13:26:42;;;;;;;3.30;1.75;;;;;;;24.17;33.80;100454.52;3679001;80;98426;-77
2022/05/31 13:31:56;;;;;;;4.37;1.65;;;;;;;24.18;34.58;100444.83;3664679;79;98887;-78
2022/05/31 13:37:01;;;;;;;8.33;1.70;;;;;;;24.05;35.59;100442.02;3659406;80;98455;-77
2022/05/31 13:42:05;;;;;;;4.95;1.87;;;;;;;24.14;34.85;100439.21;3664563;80;98807;-78
2022/05/31 13:47:08;;;;;;;5.17;1.75;;;;;;;23.95;35.10;100445.45;3666505;80;98952;-77
2022/05/31 13:52:27;;;;;;;5.75;1.80;;;;;;;24.06;36.37;100435.13;3640917;80;98892;-77
2022/05/31 13:57:28;;;;;;;10.75;2.35;;;;;;;24.13;35.01;100434.20;3655269;80;98089;-78
2022/05/31 14:03:09;;;;;;;5.28;1.67;;;;;;;23.96;34.99;100428.73;3658732;80;99064;-77
2022/05/31 14:07:48;;;;;;;;;;;;;;;23.86;36.17;100429.17;3661356;80;25995;-79
2022/05/31 14:12:48;;;;;;;5.97;1.70;;;;;;;24.00;34.65;100422.34;3666771;80;84641;-79
2022/05/31 14:17:49;;;;;;;4.78;1.80;;;;;;;24.12;35.87;100424.82;3534000;80;98382;-77
2022/05/31 14:22:53;;;;;;;28.07;3.05;;;;;;;23.95;35.31;100431.39;3580418;79;99244;-77
2022/05/31 14:27:54;;;;;;;3.98;2.15;;;;;;;23.68;34.82;100419.30;3667224;80;99027;-77
2022/05/31 14:33:02;;;;;;;5.08;1.90;;;;;;;23.59;35.10;100410.23;3664580;80;98862;-77
2022/05/31 14:38:06;;;;;;;5.33;2.10;;;;;;;23.55;34.70;100406.78;3665862;79;26158;-76
2022/05/31 14:43:18;;;;;;;3.33;1.37;;;;;;;23.34;34.57;100397.07;3653609;80;98778;-78
2022/05/31 14:48:45;;;;;;;7.45;1.85;;;;;;;23.28;35.68;100398.29;3656007;80;98492;-77
2022/05/31 14:53:54;;;;;;;3.45;1.65;;;;;;;23.26;35.74;100384.58;3666049;79;98968;-77
2022/05/31 14:59:02;;;;;;;7.17;1.97;;;;;;;23.28;35.57;100386.29;3659155;80;98856;-78
2022/05/31 15:04:17;;;;;;;3.70;1.62;;;;;;;23.15;35.05;100374.38;3666569;79;99225;-78
2022/05/31 15:09:24;;;;;;;5.43;2.60;;;;;;;23.15;36.12;100370.93;3668734;79;98884;-78
2022/05/31 15:19:44;;;;;;;5.92;1.77;;;;;;;22.92;36.52;100360.86;3677420;79;26505;-78
2022/05/31 15:24:50;;;;;;;2.62;1.45;;;;;;;23.07;36.04;100348.62;3680069;78;99047;-78
2022/05/31 15:29:53;;;;;;;3.37;1.80;;;;;;;22.75;37.44;100348.33;3672736;78;97930;-78
2022/05/31 15:34:54;;;;;;;4.65;1.90;;;;;;;22.77;37.30;100347.27;3664339;79;99234;-78
2022/05/31 15:39:57;;;;;;;3.05;1.70;;;;;;;22.64;36.26;100348.77;3676756;79;99311;-79
2022/05/31 15:44:58;;;;;;;16.97;2.50;;;;;;;22.42;36.44;100345.20;3662932;79;99311;-78
2022/05/31 15:49:59;;;;;;;6.15;1.80;;;;;;;22.32;36.80;100332.96;3681606;79;31621;-78
2022/05/31 15:55:02;;;;;;;2.27;1.35;;;;;;;22.16;36.87;100325.56;3657452;79;98444;-79
2022/05/31 16:00:11;;;;;;;5.05;1.80;;;;;;;21.91;36.80;100329.89;3673067;79;99098;-78
2022/05/31 16:05:13;;;;;;;3.90;1.40;;;;;;;21.75;36.80;100320.27;3674064;79;98594;-78
2022/05/31 16:10:19;;;;;;;3.58;1.70;;;;;;;21.54;37.79;100315.42;3666594;79;98731;-78
2022/05/31 16:15:21;;;;;;;5.37;1.80;;;;;;;21.59;38.23;100326.66;3658779;79;98601;-77
2022/05/31 16:20:23;;;;;;;3.67;1.80;;;;;;;21.43;38.23;100322.02;3662638;78;98818;-78
2022/05/31 16:25:26;;;;;;;6.62;2.45;;;;;;;21.45;38.32;100318.73;3653496;80;98684;-78
2022/05/31 16:30:47;;;;;;;8.08;1.77;;;;;;;21.43;38.21;100310.81;3659957;80;99167;-77
2022/05/31 16:35:52;;;;;;;4.95;1.95;;;;;;;21.47;38.36;100303.05;3639196;80;98737;-78
2022/05/31 16:41:11;;;;;;;8.30;2.40;;;;;;;21.46;38.30;100302.89;3654664;79;98474;-77
2022/05/31 16:46:16;;;;;;;4.92;1.87;;;;;;;21.46;39.00;100309.10;3664867;79;98903;-77
2022/05/31 16:51:31;;;;;;;3.65;1.77;;;;;;;21.43;38.99;100304.42;3663363;80;98980;-77
2022/05/31 16:56:59;;;;;;;3.12;1.67;;;;;;;21.26;39.80;100302.39;3662699;80;98392;-77
2022/05/31 17:02:01;;;;;;;8.15;1.95;;;;;;;20.93;40.03;100299.72;3658941;80;98782;-77
2022/05/31 17:17:46;;;;;;;9.00;2.08;;;;;;;20.38;41.58;100301.67;3539835;81;99107;-77
2022/05/31 17:23:04;;;;;;;9.85;2.15;;;;;;;20.16;42.13;100293.77;3661773;80;98935;-77
2022/05/31 17:28:08;;;;;;;4.97;2.22;;;;;;;20.01;41.88;100297.41;3666504;80;98899;-77
2022/05/31 17:33:25;;;;;;;5.20;1.75;;;;;;;20.08;42.44;100291.63;3664696;80;98862;-78
2022/05/31 17:38:43;;;;;;;6.53;2.00;;;;;;;19.99;42.34;100293.65;3672160;80;97820;-77
2022/05/31 17:43:44;;;;;;;3.92;1.90;;;;;;;19.90;43.14;100293.50;3670972;79;98874;-78
2022/05/31 17:48:45;;;;;;;4.62;1.85;;;;;;;19.79;43.90;100286.04;3672925;79;97863;-77
2022/05/31 17:53:46;;;;;;;4.75;1.92;;;;;;;19.74;44.75;100283.02;3685125;78;98698;-76
2022/05/31 17:58:47;;;;;;;4.58;1.98;;;;;;;19.64;45.40;100286.89;3688664;79;98477;-78
2022/05/31 18:03:48;;;;;;;10.13;2.70;;;;;;;19.55;45.81;100304.28;3675781;79;98961;-78
2022/05/31 18:08:49;;;;;;;10.05;3.58;;;;;;;19.51;46.47;100333.53;3667025;79;99026;-80
2022/05/31 18:13:50;;;;;;;11.05;3.90;;;;;;;19.12;52.34;100333.73;3667290;79;99254;-82
2022/05/31 18:18:52;;;;;;;8.13;3.40;;;;;;;18.62;56.34;100330.55;3590946;80;98844;-82
2022/05/31 18:24:00;;;;;;;6.95;3.47;;;;;;;18.32;57.95;100343.38;3670424;80;98942;-82
2022/05/31 18:34:27;;;;;;;7.40;3.65;;;;;;;17.90;60.35;100332.49;3654380;79;98754;-83
2022/05/31 18:44:32;;;;;;;5.92;3.47;;;;;;;17.13;65.17;100336.70;3615083;80;98859;-82
2022/05/31 18:49:33;;;;;;;7.03;3.73;;;;;;;16.79;66.08;100336.04;3671756;79;29856;-82
2022/05/31 18:54:33;;;;;;;8.93;3.80;;;;;;;16.63;66.62;100343.45;3651840;79;98995;-82
2022/05/31 18:59:35;;;;;;;8.28;3.33;;;;;;;16.49;67.54;100343.64;3656327;79;98893;-82
2022/05/31 19:04:35;;;;;;;4.67;2.90;;;;;;;16.33;67.57;100337.89;3610652;80;98726;-82
2022/05/31 19:09:36;;;;;;;7.17;3.70;;;;;;;16.26;67.08;100343.55;3556574;81;98815;-83
2022/05/31 19:14:39;;;;;;;7.25;3.45;;;;;;;16.01;68.51;100321.66;3660674;79;99396;-83
2022/05/31 19:19:43;;;;;;;6.10;3.50;;;;;;;15.79;71.23;100325.89;3675098;79;25741;-83
2022/05/31 19:24:44;;;;;;;7.85;4.25;;;;;;;15.55;70.41;100321.42;3663878;79;98799;-83
2022/05/31 19:29:44;;;;;;;8.68;4.92;;;;;;;15.47;70.65;100327.45;3587985;80;98650;-82
2022/05/31 19:34:50;;;;;;;11.68;4.58;;;;;;;15.40;71.67;100328.30;3591660;80;99217;-82
2022/05/31 19:39:51;;;;;;;8.53;5.00;;;;;;;15.32;72.47;100332.30;3665869;79;99398;-83
2022/05/31 19:44:52;;;;;;;8.87;5.17;;;;;;;15.09;75.74;100317.50;3656862;79;98797;-83
2022/05/31 19:49:53;;;;;;;9.23;5.03;;;;;;;14.82;75.62;100311.77;3665527;79;29869;-83
2022/05/31 19:54:59;;;;;;;8.98;4.97;;;;;;;14.72;76.33;100325.09;3654294;78;98865;-83
2022/05/31 19:59:57;;;;;;;10.08;4.72;;;;;;;14.69;75.86;100326.52;3651719;79;99295;-83
2022/05/31 20:04:58;;;;;;;9.18;4.55;;;;;;;14.56;76.18;100328.97;3658633;80;99034;-83
2022/05/31 20:10:04;;;;;;;7.37;4.33;;;;;;;14.48;76.15;100326.65;3665809;78;99206;-83
2022/05/31 20:15:13;;;;;;;8.78;4.90;;;;;;;14.40;76.25;100321.75;3652750;79;99121;-83
2022/05/31 20:20:12;;;;;;;6.90;3.77;;;;;;;14.37;76.08;100343.34;3647376;80;99125;-84
2022/05/31 20:25:18;;;;;;;7.80;4.03;;;;;;;14.31;76.72;100336.66;3653605;80;98281;-85
2022/05/31 20:30:19;;;;;;;6.22;3.62;;;;;;;14.26;77.34;100341.81;3662212;80;98976;-85
2022/05/31 20:35:20;;;;;;;6.63;3.40;;;;;;;14.21;77.87;100338.87;3648315;79;98713;-85
2022/05/31 20:40:21;;;;;;;6.97;3.37;;;;;;;14.20;77.53;100333.73;3665181;79;99369;-85
2022/05/31 20:45:23;;;;;;;5.25;2.62;;;;;;;14.12;78.95;100328.80;3661843;79;99386;-84
2022/05/31 20:50:24;;;;;;;3.93;2.30;;;;;;;14.03;79.09;100324.31;3669845;78;99304;-84
2022/05/31 20:55:27;;;;;;;4.43;2.10;;;;;;;13.91;79.83;100307.38;3585657;79;98515;-82
2022/05/31 21:00:29;;;;;;;4.20;2.58;;;;;;;13.83;80.04;100306.61;3677389;79;99159;-85
2022/05/31 21:05:30;;;;;;;4.50;2.10;;;;;;;13.75;80.97;100289.06;3654014;79;99131;-85
2022/05/31 21:10:33;;;;;;;3.20;1.70;;;;;;;13.69;81.92;100283.75;3678047;79;99158;-84
2022/05/31 21:15:35;;;;;;;3.27;1.72;;;;;;;13.63;81.13;100278.45;3665212;79;99428;-86
2022/05/31 21:20:37;;;;;;;3.20;1.77;;;;;;;13.63;82.12;100277.06;3680835;79;99169;-84
2022/05/31 21:25:40;;;;;;;3.57;1.80;;;;;;;13.61;80.42;100274.69;3651336;79;98521;-86
2022/05/31 21:30:41;;;;;;;3.60;1.77;;;;;;;13.62;80.28;100292.08;3691203;78;98675;-86
2022/05/31 21:35:43;;;;;;;3.47;2.00;;;;;;;13.66;79.05;100319.11;3682621;79;99641;-86
2022/05/31 21:46:05;;;;;;;6.12;2.83;;;;;;;13.71;79.87;100382.31;3688895;79;99242;-83
2022/05/31 21:51:07;;;;;;;6.90;3.00;;;;;;;13.70;80.61;100355.27;3692381;79;99153;-83
2022/05/31 21:56:16;;;;;;;8.80;2.98;;;;;;;13.69;81.13;100357.81;3676875;79;31694;-83
2022/05/31 22:01:20;;;;;;;8.40;3.30;;;;;;;13.69;81.51;100369.48;3679821;79;98908;-83
2022/05/31 22:06:23;;;;;;;4.87;2.80;;;;;;;13.68;82.54;100348.55;3701472;79;98613;-83
2022/05/31 22:11:26;;;;;;;5.42;2.80;;;;;;;13.63;84.55;100334.52;3683322;79;99093;-82
2022/05/31 22:16:28;;;;;;;5.72;3.00;;;;;;;13.47;86.44;100289.93;3598188;81;99225;-83
2022/05/31 22:21:30;;;;;;;6.00;3.47;;;;;;;13.37;87.75;100255.42;3634388;80;99168;-83
2022/05/31 22:26:34;;;;;;;5.00;2.55;;;;;;;13.29;89.05;100249.12;3633559;80;99344;-83
2022/05/31 22:31:37;;;;;;;5.95;2.60;;;;;;;13.24;88.68;100235.70;3661515;80;98735;-83
2022/05/31 22:36:38;;;;;;;5.33;3.00;;;;;;;13.21;88.69;100215.80;3676891;79;99058;-83
2022/05/31 22:41:39;;;;;;;4.47;2.33;;;;;;;13.21;88.59;100215.00;3658379;78;99160;-83
2022/05/31 22:46:44;;;;;;;3.50;2.10;;;;;;;13.14;87.95;100213.03;3652730;79;99376;-83
2022/05/31 22:51:45;;;;;;;4.22;2.67;;;;;;;13.15;86.60;100205.55;3653924;79;98930;-83
2022/05/31 22:56:46;;;;;;;6.27;2.50;;;;;;;13.14;86.47;100205.36;3666816;79;99187;-82
2022/05/31 23:01:47;;;;;;;5.63;2.73;;;;;;;13.07;86.67;100214.44;3643371;79;98908;-83
2022/05/31 23:06:49;;;;;;;4.43;2.83;;;;;;;12.97;86.55;100198.67;3665735;79;98980;-82
2022/05/31 23:11:51;;;;;;;4.43;3.07;;;;;;;12.90;86.94;100191.77;3659668;80;99128;-83
2022/05/31 23:16:54;;;;;;;3.98;2.67;;;;;;;12.83;86.77;100177.17;3680709;79;99310;-83
2022/05/31 23:27:17;;;;;;;4.53;2.70;;;;;;;12.82;87.58;100180.52;3674636;79;99287;-84
2022/05/31 23:32:19;;;;;;;6.05;3.25;;;;;;;12.79;86.58;100187.43;3666062;79;98512;-84
2022/05/31 23:37:19;;;;;;;4.95;2.80;;;;;;;12.75;86.20;100180.54;3635103;79;99104;-84
2022/05/31 23:42:21;;;;;;;7.07;3.43;;;;;;;12.72;86.72;100189.63;3673801;79;99259;-84
2022/05/31 23:47:22;;;;;;;5.77;2.87;;;;;;;12.71;86.58;100176.98;3664150;79;99358;-84
2022/05/31 23:52:26;;;;;;;4.73;3.10;;;;;;;12.68;86.86;100181.14;3661566;80;99283;-84
2022/05/31 23:57:27;;;;;;;5.78;3.15;;;;;;;12.68;87.69;100175.62;3672540;79;99238;-84
